createdAt,value
2023-01-08T14:51:13.721Z,77290.28
2023-01-08T14:53:55.892Z,77286.22
2023-01-08T14:56:33.285Z,77280.16
2023-01-08T14:59:06.477Z,77288.25
2023-01-08T15:01:34.115Z,77292.31
2023-01-08T15:04:17.299Z,77282.19
2023-01-08T15:06:44.992Z,77270.00
2023-01-08T15:09:32.855Z,77263.94
2023-01-08T15:12:05.277Z,77261.91
2023-01-08T15:14:37.035Z,77257.84
2023-01-08T15:17:11.521Z,77261.91
2023-01-08T15:20:02.182Z,77259.88
2023-01-08T15:22:32.862Z,77251.75
2023-01-08T15:25:07.040Z,77255.81
2023-01-08T15:27:37.860Z,77257.84
2023-01-08T15:30:09.142Z,77261.91
2023-01-08T15:32:37.402Z,77265.97
2023-01-08T15:35:16.113Z,77261.91
2023-01-08T15:37:43.295Z,77257.84
2023-01-08T15:40:12.369Z,77265.97
2023-01-08T15:42:57.985Z,77261.91
2023-01-08T15:45:32.475Z,77265.97
2023-01-08T15:47:59.918Z,77265.97
2023-01-08T15:50:28.554Z,77257.84
2023-01-08T15:53:01.027Z,77261.91
2023-01-08T15:55:28.294Z,77257.84
2023-01-08T15:57:56.193Z,77286.22
2023-01-08T16:00:23.789Z,77257.84
2023-01-08T16:02:53.159Z,77251.75
2023-01-08T16:05:22.776Z,77251.75
2023-01-08T16:07:49.731Z,77245.69
2023-01-08T16:10:17.673Z,77233.53
2023-01-08T16:12:44.661Z,77265.97
2023-01-08T16:15:13.076Z,77241.63
2023-01-08T16:17:40.441Z,77243.66
2023-01-08T16:20:08.853Z,77233.53
2023-01-08T16:22:35.920Z,77227.44
2023-01-08T16:25:04.108Z,77233.53
2023-01-08T16:27:32.125Z,77229.47
2023-01-08T16:29:59.608Z,77233.53
2023-01-08T16:32:26.562Z,77233.53
2023-01-08T16:34:54.975Z,77233.53
2023-01-08T16:37:22.417Z,77233.53
2023-01-08T16:39:49.884Z,77225.41
2023-01-08T16:42:16.899Z,77217.28
2023-01-08T16:44:45.126Z,77203.09
2023-01-08T16:47:12.032Z,77190.94
2023-01-08T16:49:41.544Z,77205.13
2023-01-08T16:52:09.660Z,77225.41
2023-01-08T16:54:37.582Z,77274.06
2023-01-08T16:57:04.758Z,77217.28
2023-01-08T16:59:33.147Z,77211.22
2023-01-08T17:02:00.542Z,77211.22
2023-01-08T17:04:31.436Z,77213.25
2023-01-08T17:06:58.704Z,77225.41
2023-01-08T17:09:26.156Z,77219.31
2023-01-08T17:11:53.056Z,77209.19
2023-01-08T17:14:20.394Z,77211.22
2023-01-08T17:16:49.126Z,77209.19
2023-01-08T17:19:17.276Z,77199.06
2023-01-08T17:21:45.968Z,77205.13
2023-01-08T17:24:13.267Z,77201.06
2023-01-08T17:26:40.257Z,77205.13
2023-01-08T17:29:07.586Z,77197.03
2023-01-08T17:31:39.933Z,77192.97
2023-01-08T17:34:11.735Z,77192.97
2023-01-08T17:36:38.694Z,77192.97
2023-01-08T17:39:05.895Z,77184.84
2023-01-08T17:41:54.173Z,77188.91
2023-01-08T17:44:21.549Z,77188.91
2023-01-08T17:46:48.935Z,77192.97
2023-01-08T17:49:16.759Z,77188.91
2023-01-08T17:51:45.997Z,77168.63
2023-01-08T17:54:15.405Z,77192.97
2023-01-08T17:56:43.085Z,77182.84
2023-01-08T17:59:15.148Z,77172.69
2023-01-08T18:01:42.355Z,77176.75
2023-01-08T18:04:09.594Z,77172.69
2023-01-08T18:06:36.538Z,77162.56
2023-01-08T18:09:04.557Z,77156.47
2023-01-08T18:11:31.823Z,77152.41
2023-01-08T18:14:02.067Z,77152.41
2023-01-08T18:16:30.678Z,77146.34
2023-01-08T18:18:58.911Z,77160.53
2023-01-08T18:21:27.084Z,77148.38
2023-01-08T18:23:54.347Z,77148.38
2023-01-08T18:26:22.293Z,77148.38
2023-01-08T18:28:51.662Z,77152.41
2023-01-08T18:31:19.007Z,77152.41
2023-01-08T18:33:50.589Z,77144.31
2023-01-08T18:36:18.262Z,77144.31
2023-01-08T18:38:45.745Z,77152.41
2023-01-08T18:41:35.530Z,77150.41
2023-01-08T18:44:05.145Z,77156.47
2023-01-08T18:46:32.328Z,77158.50
2023-01-08T18:48:59.917Z,77160.53
2023-01-08T18:51:26.881Z,77172.69
2023-01-08T18:53:54.338Z,77162.56
2023-01-08T18:56:26.758Z,77148.38
2023-01-08T18:58:54.013Z,77130.13
2023-01-08T19:01:21.089Z,77132.16
2023-01-08T19:03:48.426Z,77132.16
2023-01-08T19:06:16.694Z,77119.97
2023-01-08T19:08:45.359Z,77124.03
2023-01-08T19:11:13.496Z,77126.06
2023-01-08T19:13:41.218Z,77124.03
2023-01-08T19:16:11.046Z,77119.97
2023-01-08T19:18:39.249Z,77119.97
2023-01-08T19:21:07.409Z,77115.94
2023-01-08T19:23:35.413Z,77115.94
2023-01-08T19:26:07.326Z,77115.94
2023-01-08T19:28:34.961Z,77105.78
2023-01-08T19:31:02.777Z,77103.75
2023-01-08T19:33:30.009Z,77095.66
2023-01-08T19:36:01.613Z,77107.81
2023-01-08T19:38:28.863Z,77103.75
2023-01-08T19:41:00.247Z,77095.66
2023-01-08T19:43:42.652Z,77099.72
2023-01-08T19:46:12.088Z,77103.75
2023-01-08T19:49:01.934Z,77103.75
2023-01-08T19:51:31.083Z,77115.94
2023-01-08T19:53:58.404Z,77119.97
2023-01-08T19:56:26.215Z,77107.81
2023-01-08T19:58:55.385Z,77095.66
2023-01-08T20:01:26.343Z,77099.72
2023-01-08T20:03:54.418Z,77099.72
2023-01-08T20:06:25.223Z,77095.66
2023-01-08T20:09:00.079Z,77095.66
2023-01-08T20:11:28.468Z,77091.59
2023-01-08T20:13:56.676Z,77083.50
2023-01-08T20:16:24.592Z,77081.47
2023-01-08T20:18:55.807Z,77095.66
2023-01-08T20:21:23.983Z,77075.38
2023-01-08T20:24:06.182Z,77079.44
2023-01-08T20:26:36.227Z,77075.38
2023-01-08T20:29:04.422Z,77071.31
2023-01-08T20:31:33.060Z,77059.16
2023-01-08T20:34:03.080Z,77055.09
2023-01-08T20:36:32.791Z,77049.03
2023-01-08T20:39:02.457Z,77042.94
2023-01-08T20:41:30.156Z,77051.06
2023-01-08T20:43:57.502Z,77042.94
2023-01-08T20:46:29.638Z,77036.84
2023-01-08T20:49:04.905Z,77034.84
2023-01-08T20:51:34.226Z,77032.81
2023-01-08T20:54:03.014Z,77026.72
2023-01-08T20:56:30.597Z,77022.66
2023-01-08T20:58:57.646Z,77018.63
2023-01-08T21:01:28.426Z,77014.56
2023-01-08T21:03:56.841Z,77014.56
2023-01-08T21:06:26.443Z,77010.50
2023-01-08T21:08:55.640Z,77006.44
2023-01-08T21:11:23.976Z,77010.50
2023-01-08T21:13:51.324Z,77002.41
2023-01-08T21:16:24.457Z,77006.44
2023-01-08T21:18:54.205Z,76998.34
2023-01-08T21:21:32.051Z,76990.22
2023-01-08T21:24:04.121Z,76998.34
2023-01-08T21:26:33.939Z,76998.34
2023-01-08T21:29:06.282Z,76986.16
2023-01-08T21:31:35.276Z,76965.91
2023-01-08T21:34:04.000Z,76982.13
2023-01-08T21:36:32.662Z,76974.00
2023-01-08T21:39:01.169Z,76967.94
2023-01-08T21:41:49.059Z,76969.94
2023-01-08T21:44:37.537Z,76963.88
2023-01-08T21:47:07.269Z,76953.75
2023-01-08T21:49:36.073Z,76951.72
2023-01-08T21:52:23.040Z,76955.75
2023-01-08T21:54:51.020Z,76961.84
2023-01-08T21:57:18.430Z,76949.69
2023-01-08T21:59:45.577Z,76949.69
2023-01-08T22:02:18.016Z,76951.72
2023-01-08T22:04:45.762Z,76945.63
2023-01-08T22:07:13.975Z,76937.53
2023-01-08T22:09:41.120Z,76937.53
2023-01-08T22:12:08.769Z,76937.53
2023-01-08T22:14:35.802Z,76933.47
2023-01-08T22:17:04.247Z,76925.34
2023-01-08T22:19:31.217Z,76929.41
2023-01-08T22:21:58.400Z,76921.31
2023-01-08T22:24:25.308Z,76929.41
2023-01-08T22:26:52.577Z,76933.47
2023-01-08T22:29:19.423Z,76925.34
2023-01-08T22:31:46.582Z,76913.19
2023-01-08T22:34:17.243Z,76925.34
2023-01-08T22:36:49.682Z,76929.41
2023-01-08T22:39:16.609Z,76921.31
2023-01-08T22:41:44.750Z,76927.38
2023-01-08T22:44:12.470Z,76929.41
2023-01-08T22:46:40.374Z,76921.31
2023-01-08T22:49:09.969Z,76909.13
2023-01-08T22:51:37.155Z,76909.13
2023-01-08T22:54:04.214Z,76901.03
2023-01-08T22:56:31.884Z,76905.09
2023-01-08T22:58:58.969Z,76899.00
2023-01-08T23:01:29.879Z,76896.97
2023-01-08T23:04:00.987Z,76896.97
2023-01-08T23:06:30.518Z,76884.81
2023-01-08T23:08:58.182Z,76888.88
2023-01-08T23:11:26.341Z,76880.75
2023-01-08T23:13:53.900Z,76868.59
2023-01-08T23:16:24.660Z,76866.56
2023-01-08T23:18:53.950Z,76876.69
2023-01-08T23:21:23.374Z,76884.81
2023-01-08T23:23:50.582Z,76880.75
2023-01-08T23:26:23.502Z,76864.53
2023-01-08T23:28:51.660Z,76864.53
2023-01-08T23:31:29.587Z,76860.47
2023-01-08T23:33:57.851Z,76860.47
2023-01-08T23:36:26.082Z,76848.31
2023-01-08T23:38:55.185Z,76850.34
2023-01-08T23:41:31.980Z,76848.31
2023-01-08T23:44:05.385Z,76876.69
2023-01-08T23:46:33.027Z,76852.38
2023-01-08T23:48:59.945Z,76856.44
2023-01-08T23:51:27.691Z,76846.28
2023-01-08T23:53:54.557Z,76832.09
2023-01-08T23:56:22.616Z,76828.03
2023-01-08T23:58:49.908Z,76819.94
